Time;durP1;ratioP1;P1;durP2;ratioP2;P2;SDS_P1;SDS_P2;PMS_P1;PMS_P2;Temp;Humidity;BMP_temperature;BMP_pressure;BME280_temperature;BME280_humidity;BME280_pressure;Samples;Min_cycle;Max_cycle;Signal;HPM_P1;HPM_P2
2023/06/28 00:01:00;;;;;;;9.18;2.70;;;15.20;99.90;;;;;;4997613;28;20486;-72
2023/06/28 00:03:27;;;;;;;8.73;2.63;;;15.20;99.90;;;;;;4997287;28;20034;-72
2023/06/28 00:05:52;;;;;;;5.50;1.95;;;15.20;99.90;;;;;;4981049;28;20042;-71
2023/06/28 00:08:22;;;;;;;6.45;2.20;;;15.10;99.90;;;;;;4997585;28;20071;-72
2023/06/28 00:10:50;;;;;;;5.25;1.98;;;15.20;99.90;;;;;;4997248;28;20042;-71
2023/06/28 00:13:16;;;;;;;7.07;1.92;;;15.20;99.90;;;;;;4997032;28;20092;-72
2023/06/28 00:15:42;;;;;;;5.53;2.00;;;15.20;99.90;;;;;;4997007;28;20042;-72
2023/06/28 00:18:08;;;;;;;7.47;2.50;;;15.20;99.90;;;;;;4981027;28;20042;-72
2023/06/28 00:20:37;;;;;;;8.70;2.60;;;15.20;99.90;;;;;;5014466;28;20037;-71
2023/06/28 00:23:03;;;;;;;4.72;1.80;;;15.10;99.90;;;;;;4980737;28;20038;-72
2023/06/28 00:25:29;;;;;;;6.82;1.88;;;15.10;99.90;;;;;;4980742;28;20038;-72
2023/06/28 00:27:55;;;;;;;7.28;2.40;;;15.10;99.90;;;;;;4996758;28;20405;-71
2023/06/28 00:30:20;;;;;;;6.53;2.03;;;15.10;99.90;;;;;;4996651;28;20046;-71
2023/06/28 00:32:46;;;;;;;5.90;2.33;;;15.10;99.90;;;;;;4996777;28;20057;-72
2023/06/28 00:35:12;;;;;;;5.70;1.80;;;15.10;99.90;;;;;;4980340;28;20204;-71
2023/06/28 00:37:38;;;;;;;8.77;2.45;;;15.00;99.90;;;;;;4996562;28;20046;-71
2023/06/28 00:40:07;;;;;;;6.78;2.10;;;15.00;99.90;;;;;;4980435;28;20038;-72
2023/06/28 00:42:32;;;;;;;6.18;2.00;;;14.90;99.90;;;;;;4981058;28;20371;-71
2023/06/28 00:45:01;;;;;;;6.78;2.15;;;14.90;99.90;;;;;;4996395;28;20045;-72
2023/06/28 00:47:29;;;;;;;7.10;2.45;;;14.90;99.90;;;;;;4980325;28;20084;-72
2023/06/28 00:49:56;;;;;;;6.50;2.00;;;14.90;99.90;;;;;;4996402;28;20049;-71
2023/06/28 00:52:22;;;;;;;6.95;2.65;;;14.90;99.90;;;;;;4996301;28;20053;-71
2023/06/28 00:54:48;;;;;;;7.25;2.30;;;14.90;99.90;;;;;;4996542;28;20430;-71
2023/06/28 00:57:15;;;;;;;7.05;2.35;;;14.90;99.90;;;;;;4996180;28;20049;-71
2023/06/28 00:59:41;;;;;;;7.07;2.50;;;14.90;99.90;;;;;;4996448;28;20121;-72
2023/06/28 01:02:06;;;;;;;6.28;2.10;;;14.90;99.90;;;;;;4996140;28;20065;-72
2023/06/28 01:04:37;;;;;;;10.30;3.35;;;14.90;99.90;;;;;;4996060;28;20046;-72
2023/06/28 01:07:04;;;;;;;7.72;2.70;;;14.90;99.90;;;;;;4996079;28;20048;-72
2023/06/28 01:09:31;;;;;;;7.03;1.95;;;14.80;99.90;;;;;;4996101;28;20137;-72
2023/06/28 01:11:57;;;;;;;6.78;2.47;;;14.70;99.90;;;;;;4980143;28;20042;-72
2023/06/28 01:14:24;;;;;;;8.13;2.88;;;14.70;99.90;;;;;;4995932;28;20125;-72
2023/06/28 01:16:54;;;;;;;7.55;2.50;;;14.70;99.90;;;;;;4996330;28;20478;-71
2023/06/28 01:19:25;;;;;;;9.23;2.67;;;14.60;99.90;;;;;;4996007;28;20073;-72
2023/06/28 01:21:57;;;;;;;6.25;2.15;;;14.50;99.90;;;;;;4995772;28;20074;-72
2023/06/28 01:24:24;;;;;;;;;;;14.50;99.90;;;;;;4996145;28;20482;-71
2023/06/28 01:26:58;;;;;;;6.40;2.17;;;14.40;99.90;;;;;;4995781;28;19928;-72
2023/06/28 01:29:24;;;;;;;5.22;1.88;;;14.40;99.90;;;;;;4996077;28;20088;-71
2023/06/28 01:31:51;;;;;;;5.53;2.05;;;14.30;99.90;;;;;;4995794;28;20048;-72
2023/06/28 01:34:17;;;;;;;7.53;2.17;;;14.20;99.90;;;;;;4995726;28;20046;-71
2023/06/28 01:36:44;;;;;;;6.07;2.08;;;14.20;99.90;;;;;;4995587;28;20053;-71
2023/06/28 01:39:10;;;;;;;5.85;2.00;;;14.20;99.90;;;;;;4995695;28;20172;-71
2023/06/28 01:41:37;;;;;;;5.90;2.20;;;14.20;99.90;;;;;;4996033;28;20042;-71
2023/06/28 01:44:03;;;;;;;6.20;2.50;;;14.20;99.90;;;;;;4995532;28;20041;-72
2023/06/28 01:46:30;;;;;;;8.50;2.67;;;14.20;99.90;;;;;;4995708;28;20095;-72
2023/06/28 01:48:56;;;;;;;6.88;2.22;;;14.20;99.90;;;;;;4995589;28;20046;-72
2023/06/28 01:51:22;;;;;;;5.45;2.20;;;14.20;99.90;;;;;;4979422;28;20052;-72
2023/06/28 01:53:48;;;;;;;6.15;2.00;;;14.20;99.90;;;;;;4995409;28;20120;-72
2023/06/28 01:56:14;;;;;;;5.57;2.10;;;14.20;99.90;;;;;;4995758;28;20038;-72
2023/06/28 01:58:39;;;;;;;7.63;2.20;;;14.20;99.90;;;;;;4995774;28;20034;-72
2023/06/28 02:01:05;;;;;;;7.13;2.35;;;14.20;99.90;;;;;;4979355;28;20081;-72
2023/06/28 02:03:31;;;;;;;6.30;2.00;;;14.10;99.90;;;;;;4995294;28;20092;-71
2023/06/28 02:05:56;;;;;;;5.53;2.00;;;14.10;99.90;;;;;;4995753;28;20157;-71
2023/06/28 02:08:22;;;;;;;7.05;2.08;;;14.00;99.90;;;;;;4995379;28;20049;-72
2023/06/28 02:10:48;;;;;;;5.93;2.17;;;14.10;99.90;;;;;;4995357;28;20048;-72
2023/06/28 02:13:14;;;;;;;5.72;2.08;;;14.10;99.90;;;;;;4995365;28;20045;-72
2023/06/28 02:15:41;;;;;;;5.45;2.22;;;14.10;99.90;;;;;;4979244;28;20054;-71
2023/06/28 02:18:07;;;;;;;6.40;2.30;;;14.10;99.90;;;;;;4995320;28;20080;-72
2023/06/28 02:20:33;;;;;;;7.20;2.30;;;14.00;99.90;;;;;;4995584;28;20038;-71
2023/06/28 02:23:01;;;;;;;5.82;2.20;;;14.00;99.90;;;;;;4995273;28;20050;-71
2023/06/28 02:25:27;;;;;;;5.03;2.00;;;14.00;99.90;;;;;;5012945;28;20634;-72
2023/06/28 02:27:52;;;;;;;5.72;2.40;;;13.90;99.90;;;;;;4995189;28;20128;-71
2023/06/28 02:30:18;;;;;;;8.68;2.92;;;13.90;99.90;;;;;;4995182;28;20050;-71
2023/06/28 02:32:44;;;;;;;8.85;3.00;;;13.90;99.90;;;;;;4995232;28;20093;-71
2023/06/28 02:35:10;;;;;;;6.05;2.47;;;13.80;99.90;;;;;;4997604;28;20046;-72
2023/06/28 02:37:36;;;;;;;6.40;2.13;;;13.80;99.90;;;;;;4982668;28;20104;-72
2023/06/28 02:40:02;;;;;;;5.05;1.95;;;13.80;99.90;;;;;;4998743;28;20486;-72
2023/06/28 02:42:28;;;;;;;7.10;2.38;;;13.80;99.90;;;;;;4999178;28;20445;-72
2023/06/28 02:44:54;;;;;;;7.03;2.42;;;13.90;99.90;;;;;;4998712;28;20050;-72
2023/06/28 02:47:19;;;;;;;6.88;2.55;;;14.00;99.90;;;;;;4998640;28;20053;-72
2023/06/28 02:49:45;;;;;;;8.13;3.40;;;14.00;99.90;;;;;;4998698;28;20509;-72
2023/06/28 02:52:11;;;;;;;7.30;2.90;;;14.00;99.90;;;;;;4998946;28;20125;-72
2023/06/28 02:54:37;;;;;;;9.32;4.30;;;14.00;99.90;;;;;;4998560;28;20482;-72
2023/06/28 02:57:08;;;;;;;6.72;3.05;;;14.00;99.90;;;;;;4982536;28;20414;-72
2023/06/28 02:59:33;;;;;;;7.00;2.85;;;14.00;99.90;;;;;;4998856;28;20510;-72
2023/06/28 03:01:59;;;;;;;7.43;2.92;;;14.10;99.90;;;;;;4998403;28;20042;-71
2023/06/28 03:04:27;;;;;;;6.93;2.63;;;14.10;99.90;;;;;;4982081;28;20042;-72
2023/06/28 03:06:53;;;;;;;8.55;3.05;;;14.10;99.90;;;;;;4998390;28;20049;-72
2023/06/28 03:09:20;;;;;;;8.88;3.38;;;14.20;99.90;;;;;;4998380;28;20522;-72
2023/06/28 03:11:46;;;;;;;8.43;3.50;;;14.20;99.90;;;;;;4998328;28;20050;-72
2023/06/28 03:14:12;;;;;;;9.90;4.97;;;14.20;99.90;;;;;;4998195;28;20478;-71
2023/06/28 03:16:38;;;;;;;9.93;4.13;;;14.20;99.90;;;;;;4998232;28;20073;-72
2023/06/28 03:19:07;;;;;;;11.30;5.28;;;14.20;99.90;;;;;;4998436;28;20561;-73
2023/06/28 03:21:33;;;;;;;8.75;4.35;;;14.20;99.90;;;;;;4998317;28;20038;-72
2023/06/28 03:23:58;;;;;;;11.15;4.70;;;14.20;99.90;;;;;;4998141;28;20034;-72
2023/06/28 03:26:24;;;;;;;9.05;4.65;;;14.20;99.90;;;;;;4998283;28;20033;-71
2023/06/28 03:28:50;;;;;;;10.32;5.15;;;14.20;99.90;;;;;;4998054;28;20049;-72
2023/06/28 03:31:15;;;;;;;8.57;3.95;;;14.20;99.90;;;;;;4981677;28;20069;-72
2023/06/28 03:33:41;;;;;;;9.73;4.82;;;14.20;99.90;;;;;;4981778;28;20125;-72
2023/06/28 03:36:07;;;;;;;12.50;6.65;;;14.20;99.90;;;;;;4981235;28;20056;-72
2023/06/28 03:38:33;;;;;;;10.85;6.18;;;14.20;99.90;;;;;;4998401;28;20385;-72
2023/06/28 03:40:58;;;;;;;12.60;7.05;;;14.20;99.90;;;;;;4997701;28;20074;-72
2023/06/28 03:43:24;;;;;;;14.02;7.47;;;14.20;99.90;;;;;;4997778;28;20095;-72
2023/06/28 03:45:50;;;;;;;10.95;5.90;;;14.20;99.90;;;;;;4997288;28;20050;-72
2023/06/28 03:48:18;;;;;;;12.55;6.40;;;14.20;99.90;;;;;;4997657;28;20042;-72
2023/06/28 03:50:43;;;;;;;9.65;5.70;;;14.10;99.90;;;;;;4981587;28;20050;-72
2023/06/28 03:53:09;;;;;;;12.55;6.13;;;14.20;99.90;;;;;;4981693;28;20060;-72
2023/06/28 03:55:37;;;;;;;10.88;6.00;;;14.20;99.90;;;;;;4997448;28;20486;-72
2023/06/28 03:58:02;;;;;;;11.60;7.30;;;14.20;99.90;;;;;;4997509;28;20041;-72
2023/06/28 04:00:28;;;;;;;12.95;7.15;;;14.20;99.90;;;;;;4981259;28;20074;-72
2023/06/28 04:02:54;;;;;;;12.27;6.82;;;14.20;99.90;;;;;;4997435;28;20034;-72
2023/06/28 04:05:20;;;;;;;12.73;6.95;;;14.20;99.90;;;;;;4997254;28;20037;-72
2023/06/28 04:07:54;;;;;;;12.65;8.05;;;14.20;99.90;;;;;;4997130;28;20046;-72
2023/06/28 04:10:21;;;;;;;13.75;6.10;;;14.20;99.90;;;;;;4997239;28;20050;-72
2023/06/28 04:12:47;;;;;;;10.82;5.78;;;14.20;99.90;;;;;;4997398;28;20049;-72
2023/06/28 04:15:12;;;;;;;11.15;5.20;;;14.30;99.90;;;;;;4981058;28;20048;-72
2023/06/28 04:17:38;;;;;;;9.77;6.43;;;14.30;99.90;;;;;;4997258;28;20125;-72
2023/06/28 04:20:06;;;;;;;11.50;6.00;;;14.30;99.90;;;;;;4996991;28;20042;-72
2023/06/28 04:22:32;;;;;;;9.52;5.97;;;14.40;99.90;;;;;;4996925;28;20041;-72
2023/06/28 04:24:58;;;;;;;13.35;6.97;;;14.40;99.90;;;;;;4996899;28;20045;-72
2023/06/28 04:27:23;;;;;;;11.13;5.40;;;14.50;99.90;;;;;;4997209;28;20371;-72
2023/06/28 04:29:49;;;;;;;12.57;8.07;;;14.50;99.90;;;;;;4997037;28;20104;-72
2023/06/28 04:32:26;;;;;;;10.43;6.35;;;14.50;99.90;;;;;;4996654;28;20050;-72
2023/06/28 04:34:53;;;;;;;11.27;6.57;;;14.50;99.90;;;;;;4996695;28;20048;-72
2023/06/28 04:37:25;;;;;;;13.55;6.60;;;14.60;99.90;;;;;;4980520;28;20058;-72
2023/06/28 04:39:51;;;;;;;13.55;6.57;;;14.60;99.90;;;;;;4980469;28;20045;-72
2023/06/28 04:42:17;;;;;;;11.07;6.72;;;14.70;99.90;;;;;;4979628;28;20129;-72
2023/06/28 04:44:49;;;;;;;10.88;7.07;;;14.60;99.90;;;;;;4996433;28;20042;-72
2023/06/28 04:47:16;;;;;;;12.13;7.28;;;14.70;99.90;;;;;;4996738;28;20049;-72
2023/06/28 04:49:47;;;;;;;10.45;6.93;;;14.70;99.90;;;;;;4996519;28;20041;-72
2023/06/28 04:52:18;;;;;;;11.25;6.75;;;14.70;99.90;;;;;;4980820;28;20116;-72
2023/06/28 04:54:45;;;;;;;13.52;7.38;;;14.70;99.90;;;;;;4996346;28;20137;-72
2023/06/28 04:57:13;;;;;;;12.30;7.93;;;14.80;99.90;;;;;;4996007;28;20479;-72
2023/06/28 04:59:39;;;;;;;15.35;8.65;;;14.80;99.90;;;;;;4996381;28;20045;-72
2023/06/28 05:02:05;;;;;;;10.75;7.38;;;14.80;99.90;;;;;;4996166;28;20038;-72
2023/06/28 05:04:34;;;;;;;13.13;7.07;;;14.80;99.90;;;;;;4996544;28;20541;-72
2023/06/28 05:07:05;;;;;;;13.27;7.90;;;14.80;99.90;;;;;;4996158;28;20050;-72
2023/06/28 05:09:32;;;;;;;12.00;8.20;;;14.80;99.90;;;;;;4996426;28;20054;-72
2023/06/28 05:11:59;;;;;;;13.65;7.90;;;14.80;99.90;;;;;;5013730;28;20045;-72
2023/06/28 05:14:25;;;;;;;13.20;7.80;;;14.80;99.90;;;;;;4996289;28;20038;-72
2023/06/28 05:16:54;;;;;;;13.20;8.27;;;14.90;99.90;;;;;;4995914;28;20050;-72
2023/06/28 05:19:22;;;;;;;12.75;8.55;;;14.90;99.90;;;;;;4996028;28;20034;-72
2023/06/28 05:21:48;;;;;;;13.35;8.70;;;14.90;99.90;;;;;;4996095;28;20151;-72
2023/06/28 05:24:16;;;;;;;12.85;8.38;;;14.80;99.90;;;;;;4995796;28;20557;-72
2023/06/28 05:26:41;;;;;;;12.43;7.60;;;14.90;99.90;;;;;;4995872;28;20042;-72
2023/06/28 05:29:07;;;;;;;11.73;7.68;;;14.90;99.90;;;;;;4995792;28;20163;-72
2023/06/28 05:31:34;;;;;;;12.32;7.47;;;14.90;99.90;;;;;;4995999;28;20045;-72
2023/06/28 05:34:00;;;;;;;11.98;7.30;;;15.00;99.90;;;;;;4995695;28;20056;-72
2023/06/28 05:36:26;;;;;;;10.75;6.50;;;15.00;99.90;;;;;;4995540;28;20054;-72
2023/06/28 05:38:52;;;;;;;10.98;6.93;;;15.00;99.90;;;;;;4995591;28;20046;-72
2023/06/28 05:41:18;;;;;;;11.32;6.97;;;15.10;99.90;;;;;;4995798;28;20046;-72
2023/06/28 05:43:45;;;;;;;11.10;5.93;;;15.20;99.90;;;;;;4995587;28;20038;-72
2023/06/28 05:46:12;;;;;;;11.55;6.20;;;15.20;99.90;;;;;;4995740;28;20139;-72
2023/06/28 05:48:38;;;;;;;9.35;5.35;;;15.30;99.90;;;;;;4995612;28;20133;-72
2023/06/28 05:51:09;;;;;;;10.68;5.80;;;15.40;99.90;;;;;;4995481;28;20042;-72
2023/06/28 05:53:37;;;;;;;8.65;5.47;;;15.40;99.90;;;;;;4995908;28;20042;-72
2023/06/28 05:56:03;;;;;;;9.15;4.80;;;15.40;99.90;;;;;;4995346;28;20045;-72
2023/06/28 05:58:29;;;;;;;9.55;5.00;;;15.50;99.90;;;;;;4995754;28;20077;-72
2023/06/28 06:00:55;;;;;;;9.80;5.15;;;15.60;99.90;;;;;;4995537;28;20076;-72
2023/06/28 06:03:20;;;;;;;9.57;4.60;;;15.60;99.90;;;;;;4995397;28;20046;-72
2023/06/28 06:05:46;;;;;;;9.35;4.75;;;15.70;99.90;;;;;;4979364;28;20042;-72
2023/06/28 06:08:12;;;;;;;11.50;4.80;;;15.70;99.90;;;;;;4995374;28;20112;-72
2023/06/28 06:10:38;;;;;;;9.13;4.00;;;15.80;99.90;;;;;;4998998;28;20050;-72
2023/06/28 06:13:04;;;;;;;7.57;4.30;;;15.90;99.90;;;;;;4999290;28;20052;-72
2023/06/28 06:15:30;;;;;;;9.00;4.10;;;16.00;99.90;;;;;;4999300;28;20046;-72
2023/06/28 06:17:56;;;;;;;8.07;4.13;;;16.10;99.90;;;;;;4999402;28;20065;-72
2023/06/28 06:20:22;;;;;;;10.35;3.80;;;16.10;99.90;;;;;;4999376;28;20120;-72
2023/06/28 06:22:49;;;;;;;8.27;4.10;;;16.20;99.90;;;;;;4983239;28;20137;-72
2023/06/28 06:25:15;;;;;;;8.52;3.90;;;16.20;99.90;;;;;;4999083;28;20045;-72
2023/06/28 06:27:41;;;;;;;9.05;4.07;;;16.30;99.90;;;;;;4999170;28;20140;-71
2023/06/28 06:30:07;;;;;;;8.50;3.58;;;16.30;99.90;;;;;;4998888;28;20534;-72
2023/06/28 06:32:33;;;;;;;7.90;3.70;;;16.40;99.90;;;;;;4999016;28;20045;-72
2023/06/28 06:35:00;;;;;;;8.82;3.90;;;16.50;99.90;;;;;;4998916;28;20474;-73
2023/06/28 06:37:26;;;;;;;7.65;3.70;;;16.60;99.90;;;;;;4998791;28;20060;-72
2023/06/28 06:39:54;;;;;;;10.00;3.97;;;16.70;99.90;;;;;;4969546;28;20042;-72
2023/06/28 06:42:20;;;;;;;9.10;4.28;;;16.70;99.90;;;;;;4998814;28;20129;-72
2023/06/28 06:44:45;;;;;;;8.43;4.07;;;16.80;99.90;;;;;;4998825;28;20382;-72
2023/06/28 06:47:11;;;;;;;10.82;4.80;;;16.80;99.90;;;;;;4998956;28;20096;-72
2023/06/28 06:49:37;;;;;;;8.05;4.00;;;16.80;99.90;;;;;;4999057;28;20490;-72
2023/06/28 06:52:03;;;;;;;8.80;4.55;;;16.80;99.90;;;;;;4982542;28;20042;-72
2023/06/28 06:54:31;;;;;;;10.05;4.88;;;16.90;99.90;;;;;;4998486;28;20103;-73
2023/06/28 06:57:02;;;;;;;9.68;5.20;;;16.90;99.90;;;;;;4998818;28;20475;-72
2023/06/28 06:59:27;;;;;;;9.00;4.20;;;16.90;99.90;;;;;;4982797;28;20042;-72
2023/06/28 07:01:56;;;;;;;10.25;5.50;;;16.90;99.90;;;;;;4998461;28;20099;-72
2023/06/28 07:04:23;;;;;;;9.57;4.90;;;16.90;99.90;;;;;;4998655;28;20046;-72
2023/06/28 07:06:49;;;;;;;25.25;6.47;;;16.90;99.90;;;;;;4998393;28;20049;-72
2023/06/28 07:09:16;;;;;;;9.32;4.55;;;17.00;99.90;;;;;;4998584;28;20502;-72
2023/06/28 07:11:46;;;;;;;10.07;4.95;;;17.00;99.90;;;;;;4998255;28;20050;-72
2023/06/28 07:14:11;;;;;;;9.45;5.03;;;17.10;99.90;;;;;;4998142;28;20050;-72
2023/06/28 07:16:37;;;;;;;10.82;4.70;;;17.20;99.90;;;;;;4998467;28;20482;-72
2023/06/28 07:19:04;;;;;;;12.40;5.45;;;17.30;99.90;;;;;;4982286;28;20038;-72
2023/06/28 07:21:30;;;;;;;9.57;5.20;;;17.30;99.90;;;;;;4997083;28;20042;-73
2023/06/28 07:23:56;;;;;;;11.30;5.40;;;17.30;99.90;;;;;;4998042;28;20509;-73
2023/06/28 07:26:22;;;;;;;10.40;5.57;;;17.30;99.90;;;;;;4998004;28;20070;-72
2023/06/28 07:28:49;;;;;;;10.05;5.35;;;17.30;99.90;;;;;;4998079;28;20084;-72
2023/06/28 07:31:15;;;;;;;11.10;5.28;;;17.20;99.90;;;;;;4998023;28;20052;-72
2023/06/28 07:33:41;;;;;;;10.10;5.20;;;17.20;99.90;;;;;;4997866;28;20041;-73
2023/06/28 07:36:07;;;;;;;12.00;5.55;;;17.20;99.90;;;;;;4997728;28;20522;-72
2023/06/28 07:38:33;;;;;;;11.07;5.20;;;17.20;99.90;;;;;;4997930;28;20077;-71
2023/06/28 07:40:58;;;;;;;15.70;6.25;;;17.10;99.90;;;;;;4997985;28;20038;-71
2023/06/28 07:43:24;;;;;;;9.93;5.47;;;17.10;99.90;;;;;;4997750;28;20037;-70
2023/06/28 07:45:51;;;;;;;13.65;6.20;;;17.10;99.90;;;;;;5015372;28;20045;-73
2023/06/28 07:48:17;;;;;;;12.98;6.38;;;17.10;99.90;;;;;;4997935;28;20505;-74
2023/06/28 07:50:45;;;;;;;14.60;7.95;;;17.10;99.90;;;;;;5015365;28;20041;-74
2023/06/28 07:53:10;;;;;;;13.27;6.60;;;17.00;99.90;;;;;;4997878;28;20064;-74
2023/06/28 07:55:36;;;;;;;14.30;7.10;;;16.90;99.90;;;;;;4997525;28;20125;-73
2023/06/28 07:58:02;;;;;;;11.68;8.05;;;16.80;99.90;;;;;;5015000;28;20140;-73
2023/06/28 08:00:31;;;;;;;12.90;7.22;;;16.80;99.90;;;;;;4997461;28;20121;-75
2023/06/28 08:02:58;;;;;;;16.83;6.80;;;16.80;99.90;;;;;;4997436;28;20048;-75
2023/06/28 08:05:24;;;;;;;14.13;7.97;;;16.90;99.90;;;;;;4997655;28;20085;-76
2023/06/28 08:07:56;;;;;;;11.85;7.18;;;16.90;99.90;;;;;;4997243;28;20076;-76
2023/06/28 08:10:28;;;;;;;14.55;7.97;;;16.90;99.90;;;;;;4997296;28;20046;-76
2023/06/28 08:12:53;;;;;;;;;;;17.00;99.90;;;;;;4997939;28;20037;-75
2023/06/28 08:15:19;;;;;;;15.15;8.57;;;17.10;99.90;;;;;;4997044;28;19932;-74
2023/06/28 08:17:46;;;;;;;13.75;8.05;;;17.20;99.90;;;;;;4997127;28;20042;-74
2023/06/28 08:20:12;;;;;;;13.98;8.77;;;17.20;99.90;;;;;;5014536;28;20064;-74
2023/06/28 08:22:37;;;;;;;13.38;8.35;;;17.30;99.90;;;;;;4997283;28;20046;-74
2023/06/28 08:25:03;;;;;;;14.32;8.55;;;17.40;99.90;;;;;;4996930;28;20046;-73
2023/06/28 08:27:29;;;;;;;12.15;7.75;;;17.40;99.90;;;;;;4996868;28;20046;-73
2023/06/28 08:29:55;;;;;;;15.23;9.15;;;17.30;99.90;;;;;;4996910;28;20115;-73
2023/06/28 08:32:21;;;;;;;14.93;8.90;;;17.30;99.90;;;;;;4996905;28;20124;-73
2023/06/28 08:34:46;;;;;;;17.17;10.68;;;17.30;99.90;;;;;;4996702;28;20042;-74
2023/06/28 08:37:13;;;;;;;15.20;9.02;;;17.30;99.90;;;;;;4996824;28;20053;-75
2023/06/28 08:39:39;;;;;;;15.40;8.55;;;17.40;99.90;;;;;;5014526;28;20134;-75
2023/06/28 08:42:06;;;;;;;14.98;8.90;;;17.60;99.90;;;;;;4996973;28;20084;-74
2023/06/28 08:44:33;;;;;;;18.17;10.50;;;17.90;99.90;;;;;;4980495;28;20053;-74
2023/06/28 08:47:00;;;;;;;12.98;8.35;;;18.10;99.90;;;;;;4996806;28;20064;-73
2023/06/28 08:49:31;;;;;;;13.13;8.65;;;18.10;99.90;;;;;;4996509;28;20148;-73
2023/06/28 08:51:57;;;;;;;15.27;9.40;;;18.20;99.90;;;;;;4996758;28;20054;-73
2023/06/28 08:54:27;;;;;;;12.75;8.05;;;18.20;99.90;;;;;;5013913;28;20038;-74
2023/06/28 08:56:58;;;;;;;12.05;8.43;;;18.20;99.90;;;;;;4996443;28;20046;-74
2023/06/28 08:59:24;;;;;;;13.57;8.15;;;18.20;99.90;;;;;;4980182;28;20091;-73
2023/06/28 09:01:55;;;;;;;11.80;8.00;;;18.20;99.90;;;;;;4996491;28;20045;-74
2023/06/28 09:04:27;;;;;;;14.10;8.93;;;18.10;99.90;;;;;;5013971;28;20046;-73
2023/06/28 09:06:55;;;;;;;13.02;8.40;;;18.00;99.90;;;;;;4996303;28;20052;-73
2023/06/28 09:09:21;;;;;;;13.00;8.40;;;18.10;99.90;;;;;;4996464;28;20367;-73
2023/06/28 09:11:46;;;;;;;12.63;7.85;;;18.20;99.90;;;;;;4996472;28;20081;-72
2023/06/28 09:14:12;;;;;;;15.20;9.45;;;18.30;99.90;;;;;;4996007;28;20135;-73
2023/06/28 09:16:39;;;;;;;16.20;9.82;;;18.30;99.90;;;;;;4996242;28;20037;-72
2023/06/28 09:19:05;;;;;;;14.75;8.60;;;18.40;99.90;;;;;;4979906;28;20049;-73
2023/06/28 09:21:33;;;;;;;12.68;8.20;;;18.50;99.90;;;;;;4996114;28;20478;-73
2023/06/28 09:24:00;;;;;;;14.95;9.20;;;18.50;99.90;;;;;;4995838;28;20049;-72
2023/06/28 09:26:30;;;;;;;13.68;8.90;;;18.50;99.90;;;;;;4996151;28;20104;-73
2023/06/28 09:29:00;;;;;;;14.30;8.60;;;18.50;99.90;;;;;;5013599;28;20437;-72
2023/06/28 09:31:31;;;;;;;13.57;8.82;;;18.40;99.90;;;;;;5013414;28;20121;-72
2023/06/28 09:33:56;;;;;;;13.43;8.80;;;18.40;99.90;;;;;;4996169;28;20042;-72
2023/06/28 09:36:22;;;;;;;16.15;9.63;;;18.30;99.90;;;;;;5013147;28;20053;-72
2023/06/28 09:38:49;;;;;;;13.75;9.90;;;18.30;99.90;;;;;;5013324;28;20081;-72
2023/06/28 09:41:14;;;;;;;14.23;9.35;;;18.30;99.90;;;;;;4996017;28;20557;-71
2023/06/28 09:43:41;;;;;;;16.25;10.15;;;18.30;99.90;;;;;;4995170;28;20106;-72
2023/06/28 09:46:15;;;;;;;14.05;8.63;;;18.30;99.90;;;;;;5013565;28;20088;-72
2023/06/28 09:48:43;;;;;;;15.00;9.80;;;18.40;99.90;;;;;;4995585;28;20045;-72
2023/06/28 09:51:19;;;;;;;14.07;9.48;;;18.30;99.90;;;;;;4979620;28;20050;-72
2023/06/28 09:53:52;;;;;;;12.85;9.32;;;18.30;99.90;;;;;;5013131;28;20092;-71
2023/06/28 09:56:19;;;;;;;15.77;10.95;;;18.30;99.90;;;;;;5013398;28;20398;-72
2023/06/28 09:58:47;;;;;;;15.65;10.98;;;18.30;99.90;;;;;;5013145;28;20045;-72
2023/06/28 10:01:16;;;;;;;15.88;10.60;;;18.20;99.90;;;;;;5013373;28;20038;-71
2023/06/28 10:03:45;;;;;;;15.50;9.82;;;18.20;99.90;;;;;;4995671;28;20395;-71
2023/06/28 10:06:12;;;;;;;16.73;11.43;;;18.10;99.90;;;;;;4995752;28;20053;-72
2023/06/28 10:08:39;;;;;;;15.27;11.00;;;18.10;99.90;;;;;;4995439;28;20042;-72
2023/06/28 10:11:16;;;;;;;17.75;11.50;;;18.10;99.90;;;;;;5012993;28;20044;-72
2023/06/28 10:13:48;;;;;;;17.63;12.48;;;18.10;99.90;;;;;;4995493;28;20124;-71
2023/06/28 10:16:16;;;;;;;19.90;14.30;;;18.10;99.90;;;;;;5012991;28;20046;-72
2023/06/28 10:18:42;;;;;;;20.52;13.90;;;18.10;99.90;;;;;;4995538;28;20531;-71
2023/06/28 10:21:09;;;;;;;18.80;13.48;;;18.10;99.90;;;;;;4995471;28;20345;-71
2023/06/28 10:23:35;;;;;;;17.38;12.10;;;18.10;99.90;;;;;;5013160;28;20038;-71
2023/06/28 10:26:05;;;;;;;22.98;14.75;;;18.10;99.90;;;;;;5012931;28;20052;-71
2023/06/28 10:28:35;;;;;;;17.30;13.18;;;18.10;99.90;;;;;;5013193;28;20068;-72
2023/06/28 10:31:04;;;;;;;20.55;14.20;;;18.10;99.90;;;;;;4995214;28;20045;-71
2023/06/28 10:33:33;;;;;;;18.60;13.18;;;18.20;99.90;;;;;;4979099;28;20112;-72
2023/06/28 10:36:03;;;;;;;20.13;14.32;;;18.30;99.90;;;;;;4995052;28;20108;-70
2023/06/28 10:38:42;;;;;;;20.73;14.60;;;18.30;99.90;;;;;;5012664;28;20041;-71
2023/06/28 10:41:08;;;;;;;18.63;13.85;;;18.30;99.90;;;;;;5012803;28;20487;-72
2023/06/28 10:43:34;;;;;;;20.67;15.20;;;18.30;99.90;;;;;;5012820;28;20034;-72
2023/06/28 10:46:00;;;;;;;23.42;15.50;;;18.30;99.90;;;;;;4995408;28;20045;-72
2023/06/28 10:48:27;;;;;;;20.30;14.63;;;18.40;99.90;;;;;;4995055;28;20125;-72
2023/06/28 10:50:58;;;;;;;21.42;15.25;;;18.30;99.90;;;;;;4979400;28;20549;-72
2023/06/28 10:53:25;;;;;;;17.90;13.07;;;18.30;99.90;;;;;;5012768;28;20042;-72
2023/06/28 10:56:18;;;;;;;21.90;14.77;;;18.40;99.90;;;;;;4997059;28;20137;-71
2023/06/28 10:58:47;;;;;;;19.25;14.05;;;18.40;99.90;;;;;;5012226;28;20054;-71
2023/06/28 11:01:36;;;;;;;25.83;16.95;;;18.40;99.90;;;;;;4982212;28;20112;-72
2023/06/28 11:04:20;;;;;;;22.30;15.13;;;18.40;99.90;;;;;;4998520;28;20037;-72
2023/06/28 11:06:46;;;;;;;21.58;15.20;;;18.40;99.90;;;;;;4998706;28;20046;-72
2023/06/28 11:09:17;;;;;;;22.45;15.90;;;18.30;99.90;;;;;;4998807;28;20084;-72
2023/06/28 11:11:55;;;;;;;22.48;16.45;;;18.30;99.90;;;;;;4998388;28;20046;-72
2023/06/28 11:14:22;;;;;;;25.85;18.40;;;18.30;99.90;;;;;;4998303;28;20045;-73
2023/06/28 11:16:49;;;;;;;22.70;17.55;;;18.30;99.90;;;;;;5015996;28;20125;-73
2023/06/28 11:19:18;;;;;;;21.13;16.20;;;18.30;99.90;;;;;;4998264;28;20042;-72
2023/06/28 11:21:49;;;;;;;22.52;16.50;;;18.30;99.90;;;;;;5016120;28;20053;-72
2023/06/28 11:24:44;;;;;;;23.60;16.90;;;18.30;99.90;;;;;;5015767;28;20068;-72
2023/06/28 11:27:20;;;;;;;22.15;16.83;;;18.30;99.90;;;;;;5015030;28;20058;-72
2023/06/28 11:29:57;;;;;;;21.65;16.60;;;18.40;99.90;;;;;;5015671;28;20034;-72
2023/06/28 11:32:28;;;;;;;21.60;16.77;;;18.40;99.90;;;;;;5015803;28;20065;-72
2023/06/28 11:34:55;;;;;;;20.38;15.80;;;18.40;99.90;;;;;;4997985;28;20085;-70
2023/06/28 11:37:23;;;;;;;26.60;17.65;;;18.40;99.90;;;;;;5015363;28;20129;-70
2023/06/28 11:39:52;;;;;;;21.83;16.42;;;18.30;99.90;;;;;;4997861;28;20034;-70
2023/06/28 11:42:18;;;;;;;20.35;15.80;;;18.30;99.90;;;;;;5015704;28;20482;-70
2023/06/28 11:44:49;;;;;;;21.90;16.25;;;18.30;99.90;;;;;;5015578;28;20045;-72
2023/06/28 11:47:23;;;;;;;18.85;14.13;;;18.40;99.90;;;;;;4997832;28;20049;-72
2023/06/28 11:49:49;;;;;;;20.67;15.80;;;18.40;99.90;;;;;;4997722;28;20046;-72
2023/06/28 11:52:16;;;;;;;18.23;15.23;;;18.40;99.90;;;;;;5015350;28;20069;-72
2023/06/28 11:54:42;;;;;;;19.25;14.93;;;18.50;99.90;;;;;;5015074;28;20076;-70
2023/06/28 11:57:09;;;;;;;18.67;15.10;;;18.60;99.90;;;;;;4997397;28;20042;-71
2023/06/28 11:59:34;;;;;;;20.25;15.93;;;18.60;99.90;;;;;;4997458;28;20045;-72
2023/06/28 12:02:03;;;;;;;19.98;17.13;;;18.70;99.90;;;;;;4997697;28;20125;-72
2023/06/28 12:04:30;;;;;;;20.38;17.02;;;18.70;99.90;;;;;;4997557;28;20056;-72
2023/06/28 12:07:01;;;;;;;19.77;16.17;;;18.70;99.90;;;;;;4996846;28;20172;-72
2023/06/28 12:09:28;;;;;;;17.65;15.23;;;18.70;99.90;;;;;;5014904;28;20124;-72
2023/06/28 12:11:59;;;;;;;20.58;16.40;;;18.80;99.90;;;;;;5015006;28;20037;-73
2023/06/28 12:14:29;;;;;;;18.75;15.63;;;18.80;99.90;;;;;;4997459;28;20092;-72
2023/06/28 12:16:56;;;;;;;19.63;15.70;;;18.80;99.90;;;;;;5014804;28;20049;-72
2023/06/28 12:19:33;;;;;;;19.00;14.98;;;18.80;99.90;;;;;;4997464;28;20066;-72
2023/06/28 12:22:04;;;;;;;17.02;14.07;;;18.90;99.90;;;;;;4997038;28;20120;-72
2023/06/28 12:24:31;;;;;;;17.83;15.82;;;19.00;99.90;;;;;;5014934;28;20049;-72
2023/06/28 12:26:58;;;;;;;16.83;14.98;;;19.00;99.90;;;;;;5014793;28;20044;-72
2023/06/28 12:29:31;;;;;;;19.08;14.90;;;19.00;99.90;;;;;;5014611;28;20042;-72
2023/06/28 12:32:08;;;;;;;17.60;14.95;;;19.10;99.90;;;;;;4996829;28;20046;-72
2023/06/28 12:34:37;;;;;;;19.15;15.85;;;19.00;99.90;;;;;;5014572;28;20081;-72
2023/06/28 12:37:08;;;;;;;16.15;14.45;;;19.00;99.90;;;;;;4996641;28;20049;-72
2023/06/28 12:39:36;;;;;;;17.93;13.50;;;19.00;99.90;;;;;;4996778;28;20054;-72